createdAt,value
2022-09-23T00:01:14.382Z,0.70
2022-09-23T00:03:43.009Z,1.10
2022-09-23T00:06:21.727Z,1.45
2022-09-23T00:08:49.906Z,3.25
2022-09-23T00:11:23.143Z,1.58
2022-09-23T00:13:52.026Z,3.15
2022-09-23T00:16:30.402Z,8.50
2022-09-23T00:18:57.393Z,6.00
2022-09-23T00:21:25.403Z,3.65
2022-09-23T00:23:52.301Z,1.30
2022-09-23T00:26:21.190Z,2.25
2022-09-23T00:28:49.210Z,2.20
2022-09-23T00:31:19.364Z,9.63
2022-09-23T00:33:46.273Z,11.65
2022-09-23T00:36:17.729Z,2.67
2022-09-23T00:41:15.462Z,1.40
2022-09-23T00:43:47.025Z,1.50
2022-09-23T00:48:46.124Z,5.73
2022-09-23T00:51:19.419Z,6.57
2022-09-23T00:53:49.023Z,0.98
2022-09-23T00:56:16.227Z,1.00
2022-09-23T00:58:45.580Z,0.82
2022-09-23T01:01:14.653Z,0.95
2022-09-23T01:03:46.070Z,0.80
2022-09-23T01:06:13.793Z,1.58
2022-09-23T01:08:43.491Z,0.65
2022-09-23T01:11:28.408Z,0.80
2022-09-23T01:14:26.595Z,0.98
2022-09-23T01:17:09.298Z,0.82
2022-09-23T01:20:03.756Z,1.23
2022-09-23T01:22:44.259Z,2.00
2022-09-23T01:25:32.708Z,1.17
2022-09-23T01:28:05.688Z,0.90
2022-09-23T01:30:44.652Z,1.00
2022-09-23T01:33:22.625Z,0.90
2022-09-23T01:36:30.939Z,1.05
2022-09-23T01:39:17.453Z,2.55
2022-09-23T01:41:56.925Z,0.75
2022-09-23T01:44:39.489Z,11.52
2022-09-23T01:47:16.366Z,7.40
2022-09-23T01:50:29.798Z,8.05
2022-09-23T01:53:01.867Z,7.60
2022-09-23T01:55:34.032Z,11.13
2022-09-23T01:58:27.201Z,3.92
2022-09-23T02:01:01.097Z,3.38
2022-09-23T02:04:18.219Z,2.05
2022-09-23T02:07:29.864Z,4.35
2022-09-23T02:10:07.614Z,1.92
2022-09-23T02:12:38.962Z,2.53
2022-09-23T02:17:48.620Z,2.17
2022-09-23T02:20:22.284Z,3.55
2022-09-23T02:23:03.354Z,3.60
2022-09-23T02:25:46.795Z,5.20
2022-09-23T02:28:25.557Z,3.85
2022-09-23T02:31:12.135Z,7.82
2022-09-23T02:33:50.952Z,2.40
2022-09-23T02:36:27.806Z,4.15
2022-09-23T02:39:02.536Z,3.70
2022-09-23T02:41:36.914Z,3.33
2022-09-23T02:44:10.453Z,2.95
2022-09-23T02:46:38.223Z,5.65
2022-09-23T02:49:29.695Z,4.38
2022-09-23T02:52:00.192Z,1.70
2022-09-23T02:54:29.181Z,1.30
2022-09-23T02:56:57.497Z,1.50
2022-09-23T02:59:24.955Z,1.02
2022-09-23T03:01:57.653Z,1.00
2022-09-23T03:04:58.724Z,1.52
2022-09-23T03:07:47.176Z,0.80
2022-09-23T03:10:22.721Z,1.40
2022-09-23T03:13:26.116Z,1.50
2022-09-23T03:16:03.418Z,0.80
2022-09-23T03:19:05.371Z,1.25
2022-09-23T03:21:45.634Z,1.42
2022-09-23T03:24:14.577Z,1.60
2022-09-23T03:26:45.716Z,1.95
2022-09-23T03:29:15.736Z,1.30
2022-09-23T03:31:43.369Z,1.30
2022-09-23T03:34:25.399Z,1.40
2022-09-23T03:37:01.008Z,1.73
2022-09-23T03:39:31.780Z,1.63
2022-09-23T03:42:03.687Z,1.92
2022-09-23T03:44:31.294Z,1.33
2022-09-23T03:47:02.552Z,1.45
2022-09-23T03:49:35.225Z,1.38
2022-09-23T03:52:03.697Z,2.15
2022-09-23T03:54:30.859Z,1.85
2022-09-23T03:56:58.835Z,2.67
2022-09-23T03:59:26.838Z,2.53
2022-09-23T04:01:54.442Z,2.90
2022-09-23T04:04:21.248Z,2.25
2022-09-23T04:06:48.303Z,2.95
2022-09-23T04:09:15.391Z,3.00
2022-09-23T04:11:42.292Z,2.70
2022-09-23T04:14:09.383Z,2.72
2022-09-23T04:16:36.223Z,3.08
2022-09-23T04:19:04.963Z,2.00
2022-09-23T04:21:32.527Z,2.53
2022-09-23T04:23:59.318Z,1.90
2022-09-23T04:26:26.166Z,2.20
2022-09-23T04:28:54.688Z,2.40
2022-09-23T04:31:23.777Z,1.70
2022-09-23T04:33:51.440Z,1.75
2022-09-23T04:36:18.244Z,1.65
2022-09-23T04:38:46.508Z,1.70
2022-09-23T04:41:13.814Z,1.92
2022-09-23T04:43:40.862Z,2.00
2022-09-23T04:46:09.646Z,2.00
2022-09-23T04:48:37.820Z,1.83
2022-09-23T04:51:14.146Z,2.17
2022-09-23T04:53:43.598Z,1.85
2022-09-23T04:56:16.481Z,1.48
2022-09-23T04:58:43.891Z,2.05
2022-09-23T05:01:18.402Z,1.98
2022-09-23T05:03:46.886Z,2.13
2022-09-23T05:06:14.904Z,2.25
2022-09-23T05:08:46.916Z,2.00
2022-09-23T05:11:13.862Z,2.05
2022-09-23T05:13:40.611Z,1.70
2022-09-23T05:16:12.269Z,1.58
2022-09-23T05:18:44.127Z,1.65
2022-09-23T05:21:12.605Z,1.90
2022-09-23T05:23:43.490Z,1.60
2022-09-23T05:26:12.541Z,1.50
2022-09-23T05:28:39.986Z,1.80
2022-09-23T05:31:08.541Z,1.75
2022-09-23T05:33:36.751Z,2.25
2022-09-23T05:36:04.867Z,1.50
2022-09-23T05:38:32.230Z,1.30
2022-09-23T05:41:01.841Z,1.60
2022-09-23T05:43:29.186Z,1.80
2022-09-23T05:46:07.928Z,1.85
2022-09-23T05:48:36.341Z,1.65
2022-09-23T05:51:04.458Z,1.48
2022-09-23T05:53:31.669Z,1.42
2022-09-23T05:55:58.660Z,1.65
2022-09-23T05:58:25.848Z,1.58
2022-09-23T06:00:52.716Z,1.20
2022-09-23T06:03:20.753Z,2.30
2022-09-23T06:05:48.590Z,1.85
2022-09-23T06:08:15.689Z,1.98
2022-09-23T06:10:45.198Z,1.70
2022-09-23T06:13:12.652Z,2.33
2022-09-23T06:15:40.048Z,2.72
2022-09-23T06:18:07.359Z,3.47
2022-09-23T06:20:35.402Z,3.40
2022-09-23T06:23:09.991Z,2.78
2022-09-23T06:25:41.196Z,3.75
2022-09-23T06:28:12.764Z,3.17
2022-09-23T06:30:40.112Z,3.40
2022-09-23T06:33:06.954Z,3.05
2022-09-23T06:35:33.838Z,3.67
2022-09-23T06:38:04.436Z,3.35
2022-09-23T06:40:32.126Z,3.57
2022-09-23T06:43:02.516Z,4.20
2022-09-23T06:45:29.501Z,3.58
2022-09-23T06:47:58.364Z,3.05
2022-09-23T06:50:26.667Z,3.15
2022-09-23T06:52:58.655Z,3.05
2022-09-23T06:55:28.494Z,3.67
2022-09-23T06:57:58.104Z,2.58
2022-09-23T07:00:26.481Z,2.65
2022-09-23T07:02:54.969Z,2.80
2022-09-23T07:05:22.541Z,2.70
2022-09-23T07:07:49.735Z,2.10
2022-09-23T07:10:16.931Z,3.10
2022-09-23T07:12:43.874Z,2.00
2022-09-23T07:15:11.631Z,2.75
2022-09-23T07:17:42.987Z,2.45
2022-09-23T07:22:38.818Z,2.72
2022-09-23T07:25:06.477Z,2.42
2022-09-23T07:27:33.489Z,3.33
2022-09-23T07:30:00.425Z,3.00
2022-09-23T07:32:29.688Z,4.07
2022-09-23T07:34:57.997Z,4.28
2022-09-23T07:37:24.948Z,3.67
2022-09-23T07:39:51.887Z,4.25
2022-09-23T07:42:18.693Z,3.53
2022-09-23T07:44:47.104Z,4.22
2022-09-23T07:47:14.357Z,3.60
2022-09-23T07:49:41.678Z,3.42
2022-09-23T07:52:08.564Z,3.53
2022-09-23T07:54:35.606Z,3.35
2022-09-23T07:57:02.508Z,2.83
2022-09-23T07:59:29.292Z,2.65
2022-09-23T08:01:57.553Z,3.08
2022-09-23T08:04:28.505Z,2.53
2022-09-23T08:07:00.572Z,2.72
2022-09-23T08:09:33.114Z,2.55
2022-09-23T08:12:00.912Z,3.25
2022-09-23T08:14:27.817Z,2.97
2022-09-23T08:16:54.708Z,3.08
2022-09-23T08:19:21.696Z,3.40
2022-09-23T08:21:48.648Z,2.95
2022-09-23T08:24:18.054Z,2.80
2022-09-23T08:26:46.688Z,3.08
2022-09-23T08:29:15.164Z,3.10
2022-09-23T08:31:42.475Z,2.83
2022-09-23T08:34:09.960Z,3.03
2022-09-23T08:36:37.179Z,3.17
2022-09-23T08:39:05.603Z,3.08
2022-09-23T08:41:35.265Z,3.08
2022-09-23T08:44:09.819Z,2.95
2022-09-23T08:46:42.522Z,3.20
2022-09-23T08:49:14.558Z,3.05
2022-09-23T08:51:47.479Z,2.55
2022-09-23T08:54:17.683Z,2.45
2022-09-23T08:56:49.340Z,3.20
2022-09-23T08:59:44.200Z,2.53
2022-09-23T09:02:20.482Z,2.67
2022-09-23T09:04:59.278Z,2.53
2022-09-23T09:07:36.725Z,2.60
2022-09-23T09:10:14.883Z,2.10
2022-09-23T09:13:00.368Z,1.90
2022-09-23T09:15:29.097Z,2.55
2022-09-23T09:17:59.518Z,2.45
2022-09-23T09:20:51.611Z,2.20
2022-09-23T09:23:20.194Z,2.70
2022-09-23T09:25:54.404Z,2.65
2022-09-23T09:28:31.161Z,2.33
2022-09-23T09:31:02.870Z,2.80
2022-09-23T09:33:50.471Z,2.25
2022-09-23T09:36:30.948Z,2.45
2022-09-23T09:39:01.054Z,2.63
2022-09-23T09:41:31.727Z,2.17
2022-09-23T09:44:03.654Z,1.98
2022-09-23T09:46:52.401Z,2.22
2022-09-23T09:49:40.553Z,1.95
2022-09-23T09:52:17.009Z,2.22
2022-09-23T09:54:44.467Z,1.80
2022-09-23T09:57:19.548Z,2.00
2022-09-23T09:59:46.451Z,1.70
2022-09-23T10:02:37.151Z,1.40
2022-09-23T10:05:07.212Z,1.10
2022-09-23T10:07:34.677Z,1.08
2022-09-23T10:10:33.218Z,1.08
2022-09-23T10:13:15.610Z,0.68
2022-09-23T10:15:45.337Z,0.70
2022-09-23T10:18:28.347Z,0.70
2022-09-23T10:21:08.660Z,0.47
2022-09-23T10:23:44.757Z,0.50
2022-09-23T10:26:14.213Z,0.70
2022-09-23T10:28:59.875Z,0.35
2022-09-23T10:31:29.351Z,0.90
2022-09-23T10:34:01.984Z,0.80
2022-09-23T10:36:33.181Z,0.90
2022-09-23T10:42:23.082Z,0.55
2022-09-23T10:45:39.730Z,0.65
2022-09-23T10:48:24.969Z,0.50
2022-09-23T10:50:57.563Z,0.80
2022-09-23T10:54:01.674Z,0.77
2022-09-23T10:56:35.687Z,0.70
2022-09-23T10:59:28.176Z,0.40
2022-09-23T11:02:19.446Z,0.50
2022-09-23T11:05:07.636Z,0.40
2022-09-23T11:08:06.382Z,0.50
2022-09-23T11:11:04.606Z,0.63
2022-09-23T11:13:44.211Z,0.47
2022-09-23T11:16:41.758Z,0.43
2022-09-23T11:19:34.729Z,0.68
2022-09-23T11:22:28.296Z,0.40
2022-09-23T11:25:28.218Z,0.43
2022-09-23T11:28:36.111Z,0.40
2022-09-23T11:31:21.472Z,0.30
2022-09-23T11:34:08.136Z,0.63
2022-09-23T11:37:03.819Z,0.40
2022-09-23T11:40:02.581Z,0.20
2022-09-23T11:42:35.656Z,0.32
2022-09-23T11:45:29.740Z,0.50
2022-09-23T11:48:18.851Z,0.30
2022-09-23T11:50:58.800Z,0.45
2022-09-23T11:53:38.806Z,0.30
2022-09-23T11:56:34.626Z,0.30
2022-09-23T11:59:40.609Z,0.38
2022-09-23T12:02:20.863Z,0.35
2022-09-23T12:05:11.431Z,0.40
2022-09-23T12:07:56.874Z,0.30
2022-09-23T12:10:36.521Z,0.25
2022-09-23T12:13:21.796Z,0.30
2022-09-23T12:16:20.774Z,0.43
2022-09-23T12:19:28.191Z,0.40
2022-09-23T12:22:09.821Z,0.20
2022-09-23T12:24:42.251Z,0.20
2022-09-23T12:27:23.170Z,0.20
2022-09-23T12:29:59.951Z,0.25
2022-09-23T12:32:27.455Z,0.10
2022-09-23T12:34:55.033Z,0.20
2022-09-23T12:37:38.287Z,0.50
2022-09-23T12:40:22.259Z,0.30
2022-09-23T12:42:50.304Z,0.30
2022-09-23T12:45:39.892Z,0.28
2022-09-23T12:48:18.920Z,0.20
2022-09-23T12:51:08.740Z,0.20
2022-09-23T12:53:35.540Z,0.30
2022-09-23T12:56:15.945Z,0.50
2022-09-23T12:58:42.684Z,0.30
2022-09-23T13:01:15.745Z,0.28
2022-09-23T13:04:06.574Z,0.10
2022-09-23T13:06:53.232Z,0.10
2022-09-23T13:09:26.016Z,0.20
2022-09-23T13:11:57.010Z,0.30
2022-09-23T13:14:27.514Z,0.20
2022-09-23T13:16:58.523Z,0.20
2022-09-23T13:19:28.239Z,0.38
2022-09-23T13:21:55.135Z,0.22
2022-09-23T13:24:31.448Z,0.28
2022-09-23T13:27:15.704Z,0.28
2022-09-23T13:29:45.667Z,0.22
2022-09-23T13:32:15.244Z,0.15
2022-09-23T13:34:45.087Z,0.20
2022-09-23T13:37:28.160Z,0.20
2022-09-23T13:40:17.592Z,1.00
2022-09-23T13:42:51.387Z,0.30
2022-09-23T13:45:21.452Z,0.20
2022-09-23T13:47:50.347Z,0.20
2022-09-23T13:50:23.691Z,0.03
2022-09-23T13:53:02.718Z,0.20
2022-09-23T13:55:33.250Z,0.28
2022-09-23T13:58:13.871Z,0.30
2022-09-23T14:00:41.334Z,0.30
2022-09-23T14:03:23.217Z,0.22
2022-09-23T14:05:51.916Z,0.20
2022-09-23T14:08:19.822Z,0.20
2022-09-23T14:10:47.544Z,0.22
2022-09-23T14:13:25.731Z,0.15
2022-09-23T14:15:56.146Z,0.30
2022-09-23T14:18:38.481Z,0.28
2022-09-23T14:21:05.846Z,0.22
2022-09-23T14:23:32.987Z,0.25
2022-09-23T14:26:01.835Z,0.30
2022-09-23T14:28:29.027Z,0.30
2022-09-23T14:30:58.590Z,0.40
2022-09-23T14:33:32.965Z,0.43
2022-09-23T14:36:29.439Z,0.55
2022-09-23T14:39:08.734Z,0.98
2022-09-23T14:41:39.398Z,0.60
2022-09-23T14:44:08.265Z,0.30
2022-09-23T14:46:37.601Z,0.30
2022-09-23T14:49:14.022Z,0.50
2022-09-23T14:51:54.234Z,0.20
2022-09-23T14:54:40.111Z,0.30
2022-09-23T14:57:28.662Z,0.30
2022-09-23T15:00:09.944Z,0.30
2022-09-23T15:02:37.777Z,0.30
2022-09-23T15:05:31.644Z,0.35
2022-09-23T15:08:02.427Z,0.40
2022-09-23T15:10:37.770Z,0.50
2022-09-23T15:13:28.928Z,0.43
2022-09-23T15:15:58.109Z,0.45
2022-09-23T15:18:28.091Z,0.70
2022-09-23T15:21:00.991Z,0.60
2022-09-23T15:23:55.018Z,0.60
2022-09-23T15:26:40.805Z,0.40
2022-09-23T15:29:09.178Z,0.68
2022-09-23T15:31:37.584Z,0.73
2022-09-23T15:34:09.871Z,0.40
2022-09-23T15:36:38.409Z,0.50
2022-09-23T15:39:08.882Z,0.65
2022-09-23T15:41:35.682Z,0.57
2022-09-23T15:44:13.830Z,0.35
2022-09-23T15:46:52.061Z,0.60
2022-09-23T15:49:41.926Z,0.80
2022-09-23T15:52:12.405Z,0.60
2022-09-23T15:54:39.397Z,0.67
2022-09-23T15:57:06.245Z,0.50
2022-09-23T15:59:33.187Z,0.60
2022-09-23T16:02:08.067Z,0.70
2022-09-23T16:04:36.194Z,0.68
2022-09-23T16:07:04.631Z,0.70
2022-09-23T16:09:31.879Z,0.60
2022-09-23T16:11:58.820Z,0.52
2022-09-23T16:14:25.684Z,0.90
2022-09-23T16:16:52.666Z,0.60
2022-09-23T16:19:19.658Z,0.70
2022-09-23T16:21:46.500Z,1.00
2022-09-23T16:24:17.336Z,0.80
2022-09-23T16:26:46.684Z,1.20
2022-09-23T16:29:14.145Z,0.98
2022-09-23T16:31:41.229Z,0.65
2022-09-23T16:34:08.188Z,0.90
2022-09-23T16:36:41.326Z,0.80
2022-09-23T16:39:11.243Z,0.85
2022-09-23T16:41:38.699Z,0.90
2022-09-23T16:44:10.761Z,0.85
2022-09-23T16:46:37.558Z,1.08
2022-09-23T16:49:04.956Z,0.90
2022-09-23T16:51:38.450Z,0.93
2022-09-23T16:54:10.394Z,1.08
2022-09-23T16:56:41.831Z,1.50
2022-09-23T16:59:09.380Z,1.08
2022-09-23T17:01:54.847Z,1.05
2022-09-23T17:04:22.733Z,1.33
2022-09-23T17:06:51.519Z,1.35
2022-09-23T17:09:20.165Z,1.13
2022-09-23T17:11:51.603Z,1.20
2022-09-23T17:14:18.495Z,1.27
2022-09-23T17:16:45.390Z,1.40
2022-09-23T17:19:12.697Z,1.63
2022-09-23T17:21:39.628Z,1.20
2022-09-23T17:24:07.202Z,1.25
2022-09-23T17:26:34.402Z,1.30
2022-09-23T17:29:02.288Z,0.90
2022-09-23T17:31:30.340Z,1.40
2022-09-23T17:33:57.231Z,1.25
2022-09-23T17:36:24.445Z,1.17
2022-09-23T17:38:54.604Z,1.10
2022-09-23T17:41:21.854Z,1.50
2022-09-23T17:43:55.007Z,1.17
2022-09-23T17:46:22.077Z,1.23
2022-09-23T17:48:49.298Z,1.08
2022-09-23T17:51:19.950Z,1.52
2022-09-23T17:53:48.223Z,0.82
2022-09-23T17:56:17.675Z,1.23
2022-09-23T17:58:46.304Z,1.30
2022-09-23T18:01:18.194Z,1.52
2022-09-23T18:03:45.406Z,0.93
2022-09-23T18:06:21.623Z,1.52
2022-09-23T18:08:50.613Z,1.33
2022-09-23T18:11:26.567Z,1.25
2022-09-23T18:13:54.540Z,1.33
2022-09-23T18:16:23.811Z,1.10
2022-09-23T18:18:52.730Z,1.52
2022-09-23T18:21:20.753Z,1.58
2022-09-23T18:23:48.001Z,1.75
2022-09-23T18:26:17.001Z,1.67
2022-09-23T18:28:44.149Z,1.52
2022-09-23T18:31:11.924Z,1.75
2022-09-23T18:33:39.010Z,1.30
2022-09-23T18:36:07.294Z,1.23
2022-09-23T18:38:34.656Z,1.50
2022-09-23T18:41:02.077Z,1.25
2022-09-23T18:43:37.510Z,1.30
2022-09-23T18:46:18.085Z,1.20
2022-09-23T18:49:03.946Z,1.00
2022-09-23T18:51:32.630Z,0.77
2022-09-23T18:54:01.457Z,0.77
2022-09-23T18:56:34.815Z,0.88
2022-09-23T18:59:01.704Z,1.60
2022-09-23T19:01:28.877Z,1.10
2022-09-23T19:03:56.837Z,0.95
2022-09-23T19:06:24.996Z,0.90
2022-09-23T19:08:53.634Z,1.00
2022-09-23T19:11:21.757Z,0.93
2022-09-23T19:13:54.407Z,1.02
2022-09-23T19:16:24.917Z,0.90
2022-09-23T19:18:52.587Z,1.00
2022-09-23T19:21:21.936Z,1.10
2022-09-23T19:23:51.490Z,1.35
2022-09-23T19:26:20.989Z,0.80
2022-09-23T19:28:56.224Z,0.80
2022-09-23T19:31:29.458Z,0.90
2022-09-23T19:33:58.620Z,1.08
2022-09-23T19:36:34.013Z,0.85
2022-09-23T19:39:03.515Z,1.40
2022-09-23T19:41:35.644Z,0.90
2022-09-23T19:44:03.642Z,1.25
2022-09-23T19:46:32.631Z,0.98
2022-09-23T19:49:00.627Z,1.05
2022-09-23T19:51:28.429Z,1.25
2022-09-23T19:53:55.432Z,0.80
2022-09-23T19:56:22.582Z,2.45
2022-09-23T19:58:55.817Z,1.95
2022-09-23T20:01:23.475Z,1.38
2022-09-23T20:03:50.883Z,1.00
2022-09-23T20:06:18.499Z,0.98
2022-09-23T20:08:46.167Z,1.05
2022-09-23T20:11:31.738Z,1.40
2022-09-23T20:14:01.830Z,1.50
2022-09-23T20:16:37.328Z,0.95
2022-09-23T20:19:05.136Z,1.13
2022-09-23T20:21:33.738Z,1.20
2022-09-23T20:24:01.383Z,0.98
2022-09-23T20:26:46.848Z,0.90
2022-09-23T20:29:14.404Z,1.60
2022-09-23T20:31:41.677Z,2.33
2022-09-23T20:34:10.791Z,2.90
2022-09-23T20:36:39.742Z,6.10
2022-09-23T20:39:06.890Z,3.95
2022-09-23T20:41:37.987Z,4.50
2022-09-23T20:44:09.891Z,2.90
2022-09-23T20:46:36.939Z,4.63
2022-09-23T20:49:04.601Z,5.78
2022-09-23T20:51:33.587Z,2.63
2022-09-23T20:54:01.236Z,3.63
2022-09-23T20:56:29.302Z,1.42
2022-09-23T20:59:03.858Z,2.05
2022-09-23T21:01:35.328Z,1.73
2022-09-23T21:04:05.078Z,1.45
2022-09-23T21:06:33.816Z,2.80
2022-09-23T21:09:01.064Z,4.63
2022-09-23T21:11:29.349Z,3.95
2022-09-23T21:13:56.796Z,4.78
2022-09-23T21:16:24.771Z,3.65
2022-09-23T21:18:52.569Z,3.83
2022-09-23T21:21:22.318Z,2.65
2022-09-23T21:23:50.614Z,3.05
2022-09-23T21:26:20.229Z,2.53
2022-09-23T21:28:52.090Z,2.35
2022-09-23T21:31:25.883Z,2.63
2022-09-23T21:33:59.330Z,2.55
2022-09-23T21:36:30.834Z,1.98
2022-09-23T21:38:58.280Z,2.22
2022-09-23T21:41:25.855Z,2.00
2022-09-23T21:43:52.900Z,1.55
2022-09-23T21:46:21.050Z,1.65
2022-09-23T21:48:53.240Z,1.40
2022-09-23T21:51:25.915Z,1.40
2022-09-23T21:53:58.102Z,1.30
2022-09-23T21:56:27.285Z,1.52
2022-09-23T21:58:55.513Z,1.25
2022-09-23T22:01:23.786Z,1.38
2022-09-23T22:03:56.286Z,1.65
2022-09-23T22:06:27.139Z,1.33
2022-09-23T22:08:59.151Z,1.00
2022-09-23T22:11:50.024Z,1.70
2022-09-23T22:14:19.006Z,2.08
2022-09-23T22:16:46.618Z,1.30
2022-09-23T22:19:15.304Z,2.30
2022-09-23T22:21:45.289Z,1.77
2022-09-23T22:24:12.989Z,1.63
2022-09-23T22:26:42.167Z,1.88
2022-09-23T22:29:33.149Z,1.45
2022-09-23T22:32:23.474Z,1.17
2022-09-23T22:34:51.949Z,1.40
2022-09-23T22:37:28.842Z,1.80
2022-09-23T22:39:56.111Z,1.80
2022-09-23T22:42:23.141Z,2.45
2022-09-23T22:44:51.059Z,1.73
2022-09-23T22:47:19.395Z,1.58
2022-09-23T22:49:47.230Z,1.92
2022-09-23T22:52:21.136Z,1.60
2022-09-23T22:54:48.415Z,2.10
2022-09-23T22:57:15.452Z,1.40
2022-09-23T22:59:48.066Z,2.30
2022-09-23T23:02:16.481Z,1.67
2022-09-23T23:04:46.646Z,1.48
2022-09-23T23:07:15.431Z,1.38
2022-09-23T23:09:42.643Z,1.50
2022-09-23T23:12:09.640Z,1.40
2022-09-23T23:14:38.114Z,2.78
2022-09-23T23:17:07.721Z,1.50
2022-09-23T23:19:36.411Z,1.77
2022-09-23T23:22:06.771Z,1.35
2022-09-23T23:24:33.727Z,1.40
2022-09-23T23:27:00.581Z,1.13
2022-09-23T23:29:28.064Z,1.67
2022-09-23T23:31:55.064Z,1.67
2022-09-23T23:34:22.215Z,2.03
2022-09-23T23:36:55.140Z,1.60
2022-09-23T23:39:23.836Z,1.60
2022-09-23T23:41:55.424Z,1.38
2022-09-23T23:44:23.900Z,1.40
2022-09-23T23:46:51.204Z,2.45
2022-09-23T23:49:18.273Z,1.80
2022-09-23T23:51:45.170Z,1.60
2022-09-23T23:54:12.776Z,1.70
2022-09-23T23:56:39.668Z,1.65
2022-09-23T23:59:06.871Z,2.03
